sensor_id;sensor_type;location;lat;lon;timestamp;pressure;altitude;pressure_sealevel;temperature;humidity
72262;BME280;60173;52.112;8.648;2023-03-22T00:01:16;100075.53;;;8.77;87.43
72262;BME280;60173;52.112;8.648;2023-03-22T00:03:42;100076.56;;;8.95;87.02
72262;BME280;60173;52.112;8.648;2023-03-22T00:06:09;100072.34;;;8.89;86.79
72262;BME280;60173;52.112;8.648;2023-03-22T00:08:35;100073.94;;;8.90;86.97
72262;BME280;60173;52.112;8.648;2023-03-22T00:11:02;100070.66;;;8.93;86.85
72262;BME280;60173;52.112;8.648;2023-03-22T00:13:29;100068.97;;;8.97;86.46
72262;BME280;60173;52.112;8.648;2023-03-22T00:15:56;100064.16;;;8.94;86.62
72262;BME280;60173;52.112;8.648;2023-03-22T00:18:22;100063.03;;;8.95;86.84
72262;BME280;60173;52.112;8.648;2023-03-22T00:20:51;100063.75;;;9.01;86.51
72262;BME280;60173;52.112;8.648;2023-03-22T00:23:17;100056.94;;;9.03;86.21
72262;BME280;60173;52.112;8.648;2023-03-22T00:25:45;100056.53;;;9.10;86.26
72262;BME280;60173;52.112;8.648;2023-03-22T00:28:12;100052.53;;;9.08;86.11
72262;BME280;60173;52.112;8.648;2023-03-22T00:30:39;100061.56;;;9.17;85.92
72262;BME280;60173;52.112;8.648;2023-03-22T00:33:06;100056.47;;;9.15;85.88
72262;BME280;60173;52.112;8.648;2023-03-22T00:35:32;100048.97;;;9.26;85.53
72262;BME280;60173;52.112;8.648;2023-03-22T00:37:59;100053.75;;;9.15;85.67
72262;BME280;60173;52.112;8.648;2023-03-22T00:40:25;100054.59;;;9.30;85.34
72262;BME280;60173;52.112;8.648;2023-03-22T00:42:51;100060.19;;;9.19;85.27
72262;BME280;60173;52.112;8.648;2023-03-22T00:45:18;100055.59;;;9.34;84.92
72262;BME280;60173;52.112;8.648;2023-03-22T00:47:44;100043.97;;;9.47;84.24
72262;BME280;60173;52.112;8.648;2023-03-22T00:50:10;100051.56;;;9.45;83.98
72262;BME280;60173;52.112;8.648;2023-03-22T00:52:37;100046.34;;;9.48;83.88
72262;BME280;60173;52.112;8.648;2023-03-22T00:55:03;100036.72;;;9.42;84.11
72262;BME280;60173;52.112;8.648;2023-03-22T00:57:30;100036.94;;;9.46;83.72
72262;BME280;60173;52.112;8.648;2023-03-22T00:59:56;100036.94;;;9.46;83.59
72262;BME280;60173;52.112;8.648;2023-03-22T01:02:23;100034.53;;;9.44;83.55
72262;BME280;60173;52.112;8.648;2023-03-22T01:04:49;100039.84;;;9.49;83.40
72262;BME280;60173;52.112;8.648;2023-03-22T01:07:16;100029.19;;;9.39;84.05
72262;BME280;60173;52.112;8.648;2023-03-22T01:09:43;100031.09;;;9.39;84.18
72262;BME280;60173;52.112;8.648;2023-03-22T01:12:10;100027.16;;;9.31;84.35
72262;BME280;60173;52.112;8.648;2023-03-22T01:14:37;100020.66;;;9.32;84.37
72262;BME280;60173;52.112;8.648;2023-03-22T01:17:04;100018.44;;;9.34;84.19
72262;BME280;60173;52.112;8.648;2023-03-22T01:19:30;100017.44;;;9.30;84.41
72262;BME280;60173;52.112;8.648;2023-03-22T01:21:56;100011.75;;;9.32;84.22
72262;BME280;60173;52.112;8.648;2023-03-22T01:24:23;100009.13;;;9.26;84.37
72262;BME280;60173;52.112;8.648;2023-03-22T01:26:49;100005.41;;;9.36;84.18
72262;BME280;60173;52.112;8.648;2023-03-22T01:29:16;100009.13;;;9.40;83.49
72262;BME280;60173;52.112;8.648;2023-03-22T01:31:42;100014.44;;;9.45;83.59
72262;BME280;60173;52.112;8.648;2023-03-22T01:34:09;100013.00;;;9.34;84.13
72262;BME280;60173;52.112;8.648;2023-03-22T01:36:36;100001.56;;;9.37;83.83
72262;BME280;60173;52.112;8.648;2023-03-22T01:39:03;100002.69;;;9.36;83.77
72262;BME280;60173;52.112;8.648;2023-03-22T01:41:29;100001.38;;;9.34;83.99
72262;BME280;60173;52.112;8.648;2023-03-22T01:44:16;99997.97;;;9.28;84.09
72262;BME280;60173;52.112;8.648;2023-03-22T01:46:45;99994.97;;;9.30;84.40
72262;BME280;60173;52.112;8.648;2023-03-22T01:49:22;99995.16;;;9.33;84.08
72262;BME280;60173;52.112;8.648;2023-03-22T01:51:52;99991.25;;;9.39;83.92
72262;BME280;60173;52.112;8.648;2023-03-22T01:54:25;99988.75;;;9.29;84.16
72262;BME280;60173;52.112;8.648;2023-03-22T01:56:55;99991.25;;;9.39;84.00
72262;BME280;60173;52.112;8.648;2023-03-22T01:59:23;99982.13;;;9.35;83.96
72262;BME280;60173;52.112;8.648;2023-03-22T02:01:49;99983.72;;;9.36;83.95
72262;BME280;60173;52.112;8.648;2023-03-22T02:04:18;99978.91;;;9.33;83.96
72262;BME280;60173;52.112;8.648;2023-03-22T02:06:46;99985.13;;;9.34;84.29
72262;BME280;60173;52.112;8.648;2023-03-22T02:09:13;99983.53;;;9.33;84.29
72262;BME280;60173;52.112;8.648;2023-03-22T02:11:42;99977.00;;;9.34;84.54
72262;BME280;60173;52.112;8.648;2023-03-22T02:14:27;99980.72;;;9.24;84.69
72262;BME280;60173;52.112;8.648;2023-03-22T02:17:17;99976.50;;;9.18;85.03
72262;BME280;60173;52.112;8.648;2023-03-22T02:20:09;99977.47;;;9.08;85.43
72262;BME280;60173;52.112;8.648;2023-03-22T02:23:02;99975.69;;;9.03;85.83
72262;BME280;60173;52.112;8.648;2023-03-22T02:28:41;99968.25;;;8.95;86.35
72262;BME280;60173;52.112;8.648;2023-03-22T02:31:35;99974.25;;;8.92;86.06
72262;BME280;60173;52.112;8.648;2023-03-22T02:34:30;99964.94;;;8.98;86.18
72262;BME280;60173;52.112;8.648;2023-03-22T02:39:50;99963.34;;;8.97;86.27
72262;BME280;60173;52.112;8.648;2023-03-22T02:45:17;99964.63;;;8.86;86.73
72262;BME280;60173;52.112;8.648;2023-03-22T02:47:56;99961.41;;;8.84;87.18
72262;BME280;60173;52.112;8.648;2023-03-22T02:50:29;99950.38;;;8.80;87.29
72262;BME280;60173;52.112;8.648;2023-03-22T02:53:18;99954.75;;;8.76;87.48
72262;BME280;60173;52.112;8.648;2023-03-22T02:55:58;99948.97;;;8.83;87.46
72262;BME280;60173;52.112;8.648;2023-03-22T02:58:29;99945.16;;;8.84;87.39
72262;BME280;60173;52.112;8.648;2023-03-22T03:01:04;99941.13;;;8.81;87.81
72262;BME280;60173;52.112;8.648;2023-03-22T03:03:32;99942.75;;;8.96;87.24
72262;BME280;60173;52.112;8.648;2023-03-22T03:06:04;99947.56;;;8.99;86.72
72262;BME280;60173;52.112;8.648;2023-03-22T03:08:33;99944.06;;;8.99;86.66
72262;BME280;60173;52.112;8.648;2023-03-22T03:11:00;99940.75;;;9.02;86.72
72262;BME280;60173;52.112;8.648;2023-03-22T03:13:26;99932.53;;;8.93;86.90
72262;BME280;60173;52.112;8.648;2023-03-22T03:15:55;99924.81;;;9.00;86.80
72262;BME280;60173;52.112;8.648;2023-03-22T03:21:08;99922.50;;;8.80;86.85
72262;BME280;60173;52.112;8.648;2023-03-22T03:26:45;99929.78;;;8.66;87.45
72262;BME280;60173;52.112;8.648;2023-03-22T03:32:07;99930.06;;;8.64;87.68
72262;BME280;60173;52.112;8.648;2023-03-22T03:35:39;99921.44;;;8.48;87.88
72262;BME280;60173;52.112;8.648;2023-03-22T03:37:48;99933.13;;;8.44;88.26
72262;BME280;60173;52.112;8.648;2023-03-22T03:40:20;99927.44;;;8.45;88.62
72262;BME280;60173;52.112;8.648;2023-03-22T03:42:50;99925.00;;;8.44;88.48
72262;BME280;60173;52.112;8.648;2023-03-22T03:45:18;99925.31;;;8.42;88.72
72262;BME280;60173;52.112;8.648;2023-03-22T03:47:46;99926.56;;;8.31;88.86
72262;BME280;60173;52.112;8.648;2023-03-22T03:50:14;99921.56;;;8.38;88.81
72262;BME280;60173;52.112;8.648;2023-03-22T03:52:41;99928.63;;;8.39;88.94
72262;BME280;60173;52.112;8.648;2023-03-22T03:55:08;99917.41;;;8.46;88.90
72262;BME280;60173;52.112;8.648;2023-03-22T03:57:34;99919.41;;;8.40;89.16
72262;BME280;60173;52.112;8.648;2023-03-22T04:00:01;99914.97;;;8.44;89.48
72262;BME280;60173;52.112;8.648;2023-03-22T04:02:27;99905.78;;;8.45;89.38
72262;BME280;60173;52.112;8.648;2023-03-22T04:04:54;99909.22;;;8.51;89.21
72262;BME280;60173;52.112;8.648;2023-03-22T04:07:20;99915.41;;;8.51;88.95
72262;BME280;60173;52.112;8.648;2023-03-22T04:09:46;99908.03;;;8.71;88.44
72262;BME280;60173;52.112;8.648;2023-03-22T04:12:13;99907.03;;;8.80;88.18
72262;BME280;60173;52.112;8.648;2023-03-22T04:14:39;99902.44;;;8.81;88.06
72262;BME280;60173;52.112;8.648;2023-03-22T04:17:06;99910.63;;;8.76;88.34
72262;BME280;60173;52.112;8.648;2023-03-22T04:19:32;99905.03;;;8.86;88.15
72262;BME280;60173;52.112;8.648;2023-03-22T04:21:59;99903.34;;;8.90;88.00
72262;BME280;60173;52.112;8.648;2023-03-22T04:24:26;99893.41;;;8.99;87.68
72262;BME280;60173;52.112;8.648;2023-03-22T04:26:53;99899.44;;;9.10;87.11
72262;BME280;60173;52.112;8.648;2023-03-22T04:29:19;99902.22;;;9.05;87.03
72262;BME280;60173;52.112;8.648;2023-03-22T04:31:46;99892.78;;;9.16;86.74
72262;BME280;60173;52.112;8.648;2023-03-22T04:34:12;99890.41;;;9.15;86.72
72262;BME280;60173;52.112;8.648;2023-03-22T04:36:39;99886.19;;;9.09;86.74
72262;BME280;60173;52.112;8.648;2023-03-22T04:39:08;99891.38;;;9.19;86.49
72262;BME280;60173;52.112;8.648;2023-03-22T04:41:35;99886.56;;;9.16;86.76
72262;BME280;60173;52.112;8.648;2023-03-22T04:44:06;99891.38;;;9.19;86.25
72262;BME280;60173;52.112;8.648;2023-03-22T04:46:34;99884.75;;;9.25;85.97
72262;BME280;60173;52.112;8.648;2023-03-22T04:49:02;99888.97;;;9.31;86.12
72262;BME280;60173;52.112;8.648;2023-03-22T04:51:29;99880.84;;;9.31;85.64
72262;BME280;60173;52.112;8.648;2023-03-22T04:53:56;99884.75;;;9.25;85.89
72262;BME280;60173;52.112;8.648;2023-03-22T04:56:24;99882.03;;;9.39;85.25
72262;BME280;60173;52.112;8.648;2023-03-22T04:58:51;99883.34;;;9.41;85.32
72262;BME280;60173;52.112;8.648;2023-03-22T05:01:17;99886.25;;;9.31;85.46
72262;BME280;60173;52.112;8.648;2023-03-22T05:03:44;99882.66;;;9.22;85.88
72262;BME280;60173;52.112;8.648;2023-03-22T05:06:10;99892.78;;;9.30;85.85
72262;BME280;60173;52.112;8.648;2023-03-22T05:08:37;99886.25;;;9.31;85.72
72262;BME280;60173;52.112;8.648;2023-03-22T05:11:10;99888.16;;;9.31;85.56
72262;BME280;60173;52.112;8.648;2023-03-22T05:13:37;99890.28;;;9.34;85.47
72262;BME280;60173;52.112;8.648;2023-03-22T05:16:04;99880.44;;;9.38;85.24
72262;BME280;60173;52.112;8.648;2023-03-22T05:18:31;99874.00;;;9.34;85.44
72262;BME280;60173;52.112;8.648;2023-03-22T05:20:58;99880.56;;;9.19;85.57
72262;BME280;60173;52.112;8.648;2023-03-22T05:23:25;99882.75;;;9.17;85.77
72262;BME280;60173;52.112;8.648;2023-03-22T05:25:52;99871.09;;;9.30;85.64
72262;BME280;60173;52.112;8.648;2023-03-22T05:28:20;99879.25;;;9.30;85.37
72262;BME280;60173;52.112;8.648;2023-03-22T05:30:47;99875.13;;;9.33;85.60
72262;BME280;60173;52.112;8.648;2023-03-22T05:33:14;99871.47;;;9.37;85.30
72262;BME280;60173;52.112;8.648;2023-03-22T05:35:41;99872.31;;;9.38;85.13
72262;BME280;60173;52.112;8.648;2023-03-22T05:38:08;99866.19;;;9.32;85.43
72262;BME280;60173;52.112;8.648;2023-03-22T05:40:35;99868.06;;;9.45;84.87
72262;BME280;60173;52.112;8.648;2023-03-22T05:43:01;99864.38;;;9.41;84.70
72262;BME280;60173;52.112;8.648;2023-03-22T05:45:27;99865.50;;;9.40;84.91
72262;BME280;60173;52.112;8.648;2023-03-22T05:47:54;99860.63;;;9.51;84.52
72262;BME280;60173;52.112;8.648;2023-03-22T05:50:21;99861.03;;;9.44;84.64
72262;BME280;60173;52.112;8.648;2023-03-22T05:52:48;99855.13;;;9.42;85.19
72262;BME280;60173;52.112;8.648;2023-03-22T05:55:15;99858.22;;;9.49;84.59
72262;BME280;60173;52.112;8.648;2023-03-22T05:57:42;99855.19;;;9.51;84.41
72262;BME280;60173;52.112;8.648;2023-03-22T06:00:12;99855.66;;;9.67;84.03
72262;BME280;60173;52.112;8.648;2023-03-22T06:02:39;99856.69;;;9.57;84.07
72262;BME280;60173;52.112;8.648;2023-03-22T06:05:06;99845.91;;;9.66;83.77
72262;BME280;60173;52.112;8.648;2023-03-22T06:07:33;99862.19;;;9.66;83.57
72262;BME280;60173;52.112;8.648;2023-03-22T06:09:59;99857.16;;;9.73;83.38
72262;BME280;60173;52.112;8.648;2023-03-22T06:12:25;99856.22;;;9.78;83.18
72262;BME280;60173;52.112;8.648;2023-03-22T06:14:55;99856.66;;;9.93;82.49
72262;BME280;60173;52.112;8.648;2023-03-22T06:17:21;99843.78;;;9.77;82.77
72262;BME280;60173;52.112;8.648;2023-03-22T06:19:48;99851.13;;;9.99;82.38
72262;BME280;60173;52.112;8.648;2023-03-22T06:22:18;99838.53;;;10.03;81.77
72262;BME280;60173;52.112;8.648;2023-03-22T06:24:44;99846.78;;;9.98;82.33
72262;BME280;60173;52.112;8.648;2023-03-22T06:27:10;99854.50;;;10.04;81.84
72262;BME280;60173;52.112;8.648;2023-03-22T06:29:37;99844.16;;;10.29;80.95
72262;BME280;60173;52.112;8.648;2023-03-22T06:32:03;99847.31;;;10.53;80.21
72262;BME280;60173;52.112;8.648;2023-03-22T06:34:30;99841.75;;;10.58;79.65
72262;BME280;60173;52.112;8.648;2023-03-22T06:36:56;99831.72;;;10.68;79.67
72262;BME280;60173;52.112;8.648;2023-03-22T06:39:23;99844.88;;;10.83;78.88
72262;BME280;60173;52.112;8.648;2023-03-22T06:41:49;99838.19;;;10.89;78.11
72262;BME280;60173;52.112;8.648;2023-03-22T06:44:16;99844.47;;;11.07;77.76
72262;BME280;60173;52.112;8.648;2023-03-22T06:46:43;99847.06;;;11.21;77.51
72262;BME280;60173;52.112;8.648;2023-03-22T06:49:09;99835.44;;;11.46;76.72
72262;BME280;60173;52.112;8.648;2023-03-22T06:51:35;99834.00;;;11.58;75.88
72262;BME280;60173;52.112;8.648;2023-03-22T06:54:02;99838.78;;;11.52;75.74
72262;BME280;60173;52.112;8.648;2023-03-22T06:56:28;99845.50;;;11.46;75.72
72262;BME280;60173;52.112;8.648;2023-03-22T06:58:54;99829.19;;;11.46;75.81
72262;BME280;60173;52.112;8.648;2023-03-22T07:01:21;99837.81;;;11.48;74.96
72262;BME280;60173;52.112;8.648;2023-03-22T07:03:47;99832.06;;;11.58;75.07
72262;BME280;60173;52.112;8.648;2023-03-22T07:06:14;99838.78;;;11.52;75.14
72262;BME280;60173;52.112;8.648;2023-03-22T07:08:40;99827.25;;;11.38;74.64
72262;BME280;60173;52.112;8.648;2023-03-22T07:11:06;99836.50;;;11.37;74.51
72262;BME280;60173;52.112;8.648;2023-03-22T07:13:33;99825.00;;;11.40;75.37
72262;BME280;60173;52.112;8.648;2023-03-22T07:16:00;99833.34;;;11.35;75.13
72262;BME280;60173;52.112;8.648;2023-03-22T07:18:28;99820.69;;;11.30;75.26
72262;BME280;60173;52.112;8.648;2023-03-22T07:20:54;99826.06;;;11.04;75.46
72262;BME280;60173;52.112;8.648;2023-03-22T07:23:21;99832.34;;;11.30;75.44
72262;BME280;60173;52.112;8.648;2023-03-22T07:25:47;99820.69;;;11.30;74.47
72262;BME280;60173;52.112;8.648;2023-03-22T07:28:14;99822.13;;;11.45;74.62
72262;BME280;60173;52.112;8.648;2023-03-22T07:30:41;99815.59;;;11.37;74.78
72262;BME280;60173;52.112;8.648;2023-03-22T07:33:09;99815.75;;;11.41;73.90
72262;BME280;60173;52.112;8.648;2023-03-22T07:35:36;99818.63;;;11.53;73.76
72262;BME280;60173;52.112;8.648;2023-03-22T07:38:04;99819.41;;;11.62;73.50
72262;BME280;60173;52.112;8.648;2023-03-22T07:40:30;99817.19;;;11.64;73.71
72262;BME280;60173;52.112;8.648;2023-03-22T07:42:57;99820.22;;;11.71;73.02
72262;BME280;60173;52.112;8.648;2023-03-22T07:45:24;99805.19;;;11.48;73.69
72262;BME280;60173;52.112;8.648;2023-03-22T07:47:51;99811.25;;;11.45;74.58
72262;BME280;60173;52.112;8.648;2023-03-22T07:50:17;99810.81;;;11.60;74.24
72262;BME280;60173;52.112;8.648;2023-03-22T07:52:44;99802.78;;;11.55;73.97
72262;BME280;60173;52.112;8.648;2023-03-22T07:55:11;99796.38;;;11.60;74.06
72262;BME280;60173;52.112;8.648;2023-03-22T07:57:39;99807.75;;;11.36;75.03
72262;BME280;60173;52.112;8.648;2023-03-22T08:00:07;99790.63;;;11.35;75.08
72262;BME280;60173;52.112;8.648;2023-03-22T08:02:34;99790.28;;;11.28;75.53
72262;BME280;60173;52.112;8.648;2023-03-22T08:05:01;99791.91;;;11.29;75.55
72262;BME280;60173;52.112;8.648;2023-03-22T08:07:27;99777.97;;;11.30;74.69
72262;BME280;60173;52.112;8.648;2023-03-22T08:09:53;99792.06;;;11.32;74.93
72262;BME280;60173;52.112;8.648;2023-03-22T08:12:20;99791.44;;;11.36;75.23
72262;BME280;60173;52.112;8.648;2023-03-22T08:14:46;99779.13;;;11.29;75.25
72262;BME280;60173;52.112;8.648;2023-03-22T08:17:12;99787.75;;;11.31;75.61
72262;BME280;60173;52.112;8.648;2023-03-22T08:19:39;99785.03;;;11.49;74.68
72262;BME280;60173;52.112;8.648;2023-03-22T08:22:05;99785.00;;;11.84;74.01
72262;BME280;60173;52.112;8.648;2023-03-22T08:24:31;99791.53;;;12.09;73.51
72262;BME280;60173;52.112;8.648;2023-03-22T08:26:58;99783.84;;;12.19;71.50
72262;BME280;60173;52.112;8.648;2023-03-22T08:29:24;99790.03;;;12.29;71.32
72262;BME280;60173;52.112;8.648;2023-03-22T08:31:50;99786.56;;;12.19;70.93
72262;BME280;60173;52.112;8.648;2023-03-22T08:34:17;99783.56;;;12.04;71.65
72262;BME280;60173;52.112;8.648;2023-03-22T08:36:44;99780.59;;;12.26;72.31
72262;BME280;60173;52.112;8.648;2023-03-22T08:39:10;99780.94;;;12.25;70.93
72262;BME280;60173;52.112;8.648;2023-03-22T08:41:37;99785.91;;;12.23;71.08
72262;BME280;60173;52.112;8.648;2023-03-22T08:44:04;99779.34;;;12.15;71.68
72262;BME280;60173;52.112;8.648;2023-03-22T08:46:30;99772.22;;;11.93;72.09
72262;BME280;60173;52.112;8.648;2023-03-22T08:48:57;99780.88;;;11.95;72.82
72262;BME280;60173;52.112;8.648;2023-03-22T08:51:23;99771.94;;;12.33;71.55
72262;BME280;60173;52.112;8.648;2023-03-22T08:53:50;99766.53;;;12.62;70.95
72262;BME280;60173;52.112;8.648;2023-03-22T08:56:16;99755.91;;;12.70;70.17
72262;BME280;60173;52.112;8.648;2023-03-22T08:58:42;99761.91;;;12.54;70.28
72262;BME280;60173;52.112;8.648;2023-03-22T09:01:13;99755.72;;;12.45;70.08
72262;BME280;60173;52.112;8.648;2023-03-22T09:03:40;99747.38;;;12.50;70.09
72262;BME280;60173;52.112;8.648;2023-03-22T09:06:08;99755.63;;;12.62;69.89
72262;BME280;60173;52.112;8.648;2023-03-22T09:08:35;99753.38;;;12.64;69.55
72262;BME280;60173;52.112;8.648;2023-03-22T09:11:01;99749.38;;;12.92;68.62
72262;BME280;60173;52.112;8.648;2023-03-22T09:13:28;99747.81;;;12.82;68.25
72262;BME280;60173;52.112;8.648;2023-03-22T09:15:55;99742.69;;;12.80;67.26
72262;BME280;60173;52.112;8.648;2023-03-22T09:18:22;99739.97;;;12.80;68.42
72262;BME280;60173;52.112;8.648;2023-03-22T09:20:49;99746.66;;;13.33;67.42
72262;BME280;60173;52.112;8.648;2023-03-22T09:23:16;99750.00;;;13.39;65.57
72262;BME280;60173;52.112;8.648;2023-03-22T09:25:46;99730.78;;;13.36;65.40
72262;BME280;60173;52.112;8.648;2023-03-22T09:28:13;99746.50;;;13.72;64.96
72262;BME280;60173;52.112;8.648;2023-03-22T09:30:40;99739.97;;;13.97;64.43
72262;BME280;60173;52.112;8.648;2023-03-22T09:33:07;99737.47;;;13.92;63.42
72262;BME280;60173;52.112;8.648;2023-03-22T09:35:34;99732.75;;;13.81;63.27
72262;BME280;60173;52.112;8.648;2023-03-22T09:38:00;99742.34;;;13.99;63.37
72262;BME280;60173;52.112;8.648;2023-03-22T09:40:28;99734.94;;;13.99;62.64
72262;BME280;60173;52.112;8.648;2023-03-22T09:43:08;99723.69;;;13.89;63.17
72262;BME280;60173;52.112;8.648;2023-03-22T09:45:40;99715.66;;;14.29;62.37
72262;BME280;60173;52.112;8.648;2023-03-22T09:48:34;99722.72;;;14.55;62.29
72262;BME280;60173;52.112;8.648;2023-03-22T09:51:05;99719.06;;;14.51;61.28
72262;BME280;60173;52.112;8.648;2023-03-22T09:53:32;99719.75;;;14.72;61.63
72262;BME280;60173;52.112;8.648;2023-03-22T09:56:07;99717.28;;;14.67;61.76
72262;BME280;60173;52.112;8.648;2023-03-22T10:01:04;99714.31;;;14.60;60.28
72262;BME280;60173;52.112;8.648;2023-03-22T10:03:44;99703.78;;;14.99;59.57
72262;BME280;60173;52.112;8.648;2023-03-22T10:06:23;99706.19;;;14.88;59.83
72262;BME280;60173;52.112;8.648;2023-03-22T10:09:01;99706.47;;;14.58;60.30
72262;BME280;60173;52.112;8.648;2023-03-22T10:11:43;99714.72;;;14.00;61.38
72262;BME280;60173;52.112;8.648;2023-03-22T10:14:34;99711.03;;;13.84;61.26
72262;BME280;60173;52.112;8.648;2023-03-22T10:17:08;99708.53;;;13.91;61.18
72262;BME280;60173;52.112;8.648;2023-03-22T10:22:11;99704.03;;;14.69;59.23
72262;BME280;60173;52.112;8.648;2023-03-22T10:24:42;99695.03;;;14.93;59.22
72262;BME280;60173;52.112;8.648;2023-03-22T10:27:15;99703.34;;;14.72;58.65
72262;BME280;60173;52.112;8.648;2023-03-22T10:29:45;99691.16;;;14.08;59.11
72262;BME280;60173;52.112;8.648;2023-03-22T10:34:46;99702.34;;;14.03;60.36
72262;BME280;60173;52.112;8.648;2023-03-22T10:37:15;99702.34;;;14.28;60.54
72262;BME280;60173;52.112;8.648;2023-03-22T10:39:44;99686.84;;;14.32;58.65
72262;BME280;60173;52.112;8.648;2023-03-22T10:42:15;99690.63;;;14.27;60.36
72262;BME280;60173;52.112;8.648;2023-03-22T10:44:44;99700.63;;;14.23;59.85
72262;BME280;60173;52.112;8.648;2023-03-22T10:47:14;99695.84;;;14.08;59.70
72262;BME280;60173;52.112;8.648;2023-03-22T10:49:45;99702.91;;;14.33;59.86
72262;BME280;60173;52.112;8.648;2023-03-22T10:55:08;99717.72;;;14.32;58.04
72262;BME280;60173;52.112;8.648;2023-03-22T10:57:35;99717.97;;;14.64;57.98
72262;BME280;60173;52.112;8.648;2023-03-22T11:00:03;99704.69;;;15.03;57.03
72262;BME280;60173;52.112;8.648;2023-03-22T11:02:31;99706.03;;;15.09;55.95
72262;BME280;60173;52.112;8.648;2023-03-22T11:05:03;99724.50;;;15.00;56.70
72262;BME280;60173;52.112;8.648;2023-03-22T11:07:37;99715.19;;;14.88;56.13
72262;BME280;60173;52.112;8.648;2023-03-22T11:12:38;99718.75;;;14.77;56.72
72262;BME280;60173;52.112;8.648;2023-03-22T11:15:06;99706.16;;;15.00;57.11
72262;BME280;60173;52.112;8.648;2023-03-22T11:17:44;99712.41;;;15.13;57.05
72262;BME280;60173;52.112;8.648;2023-03-22T11:20:15;99708.28;;;15.19;55.53
72262;BME280;60173;52.112;8.648;2023-03-22T11:22:44;99712.63;;;15.36;56.43
72262;BME280;60173;52.112;8.648;2023-03-22T11:25:22;99718.53;;;15.22;57.13
72262;BME280;60173;52.112;8.648;2023-03-22T11:27:57;99719.00;;;15.12;56.22
72262;BME280;60173;52.112;8.648;2023-03-22T11:30:32;99713.00;;;14.94;55.47
72262;BME280;60173;52.112;8.648;2023-03-22T11:35:47;99720.63;;;15.13;55.47
72262;BME280;60173;52.112;8.648;2023-03-22T11:38:24;99731.91;;;14.99;55.43
72262;BME280;60173;52.112;8.648;2023-03-22T11:41:02;99725.94;;;15.09;56.00
72262;BME280;60173;52.112;8.648;2023-03-22T11:43:40;99711.72;;;15.16;55.22
72262;BME280;60173;52.112;8.648;2023-03-22T11:46:09;99719.63;;;14.93;56.00
72262;BME280;60173;52.112;8.648;2023-03-22T11:48:36;99711.66;;;15.28;55.41
72262;BME280;60173;52.112;8.648;2023-03-22T11:51:11;99713.78;;;15.63;54.95
72262;BME280;60173;52.112;8.648;2023-03-22T11:53:41;99716.16;;;15.77;54.55
72262;BME280;60173;52.112;8.648;2023-03-22T11:56:10;99720.50;;;15.66;54.61
72262;BME280;60173;52.112;8.648;2023-03-22T12:01:17;99708.19;;;15.72;54.27
72262;BME280;60173;52.112;8.648;2023-03-22T12:03:51;99710.06;;;15.84;54.77
72262;BME280;60173;52.112;8.648;2023-03-22T12:06:28;99702.34;;;15.73;55.20
72262;BME280;60173;52.112;8.648;2023-03-22T12:09:17;99700.00;;;16.03;54.67
72262;BME280;60173;52.112;8.648;2023-03-22T12:11:50;99693.06;;;16.57;53.46
72262;BME280;60173;52.112;8.648;2023-03-22T12:14:28;99687.81;;;16.84;52.30
72262;BME280;60173;52.112;8.648;2023-03-22T12:17:09;99690.50;;;16.48;53.30
72262;BME280;60173;52.112;8.648;2023-03-22T12:19:54;99678.53;;;15.74;53.28
72262;BME280;60173;52.112;8.648;2023-03-22T12:22:31;99675.16;;;15.36;53.79
72262;BME280;60173;52.112;8.648;2023-03-22T12:24:58;99675.84;;;15.33;55.36
72262;BME280;60173;52.112;8.648;2023-03-22T12:27:30;99669.22;;;15.34;55.76
72262;BME280;60173;52.112;8.648;2023-03-22T12:30:06;99674.09;;;15.69;55.82
72262;BME280;60173;52.112;8.648;2023-03-22T12:32:44;99670.31;;;15.90;54.90
72262;BME280;60173;52.112;8.648;2023-03-22T12:35:17;99672.22;;;15.73;54.48
72262;BME280;60173;52.112;8.648;2023-03-22T12:37:49;99661.59;;;16.00;54.49
72262;BME280;60173;52.112;8.648;2023-03-22T12:40:30;99661.13;;;16.14;53.36
72262;BME280;60173;52.112;8.648;2023-03-22T12:45:50;99663.41;;;16.27;54.66
72262;BME280;60173;52.112;8.648;2023-03-22T12:48:20;99664.75;;;16.18;52.88
72262;BME280;60173;52.112;8.648;2023-03-22T12:51:03;99661.41;;;15.77;53.72
72262;BME280;60173;52.112;8.648;2023-03-22T12:53:34;99653.78;;;15.70;54.19
72262;BME280;60173;52.112;8.648;2023-03-22T12:56:01;99660.47;;;15.57;54.62
72262;BME280;60173;52.112;8.648;2023-03-22T12:58:28;99645.38;;;15.19;54.46
72262;BME280;60173;52.112;8.648;2023-03-22T13:00:56;99654.28;;;15.16;54.71
72262;BME280;60173;52.112;8.648;2023-03-22T13:03:41;99658.22;;;14.90;56.31
72262;BME280;60173;52.112;8.648;2023-03-22T13:09:08;99656.00;;;14.68;59.41
72262;BME280;60173;52.112;8.648;2023-03-22T13:11:35;99662.38;;;14.47;60.88
72262;BME280;60173;52.112;8.648;2023-03-22T13:14:02;99670.13;;;14.58;60.28
72262;BME280;60173;52.112;8.648;2023-03-22T13:16:50;99682.22;;;14.57;61.75
72262;BME280;60173;52.112;8.648;2023-03-22T13:19:36;99674.25;;;14.15;62.35
72262;BME280;60173;52.112;8.648;2023-03-22T13:22:18;99675.69;;;14.00;63.46
72262;BME280;60173;52.112;8.648;2023-03-22T13:27:34;99680.94;;;14.17;64.01
72262;BME280;60173;52.112;8.648;2023-03-22T13:30:01;99684.44;;;14.06;63.08
72262;BME280;60173;52.112;8.648;2023-03-22T13:32:30;99680.50;;;14.15;63.47
72262;BME280;60173;52.112;8.648;2023-03-22T13:34:57;99683.09;;;13.99;63.81
72262;BME280;60173;52.112;8.648;2023-03-22T13:37:32;99694.91;;;13.91;64.83
72262;BME280;60173;52.112;8.648;2023-03-22T13:40:11;99696.97;;;13.94;63.64
72262;BME280;60173;52.112;8.648;2023-03-22T13:42:38;99696.91;;;13.70;64.78
72262;BME280;60173;52.112;8.648;2023-03-22T13:45:27;99696.38;;;13.43;63.81
72262;BME280;60173;52.112;8.648;2023-03-22T13:48:28;99709.88;;;13.73;63.60
72262;BME280;60173;52.112;8.648;2023-03-22T13:50:56;99706.69;;;13.71;63.79
72262;BME280;60173;52.112;8.648;2023-03-22T13:53:28;99698.97;;;13.73;63.85
72262;BME280;60173;52.112;8.648;2023-03-22T13:55:58;99697.19;;;13.89;63.08
72262;BME280;60173;52.112;8.648;2023-03-22T14:00:55;99694.47;;;14.01;62.11
72262;BME280;60173;52.112;8.648;2023-03-22T14:03:27;99675.25;;;14.10;61.22